Terminal Aerodrome Forecast
Issued by NWS Sterling, VA

Home | Current Version | Previous Version | Text Only | Print | Product List | Glossary On
Versions: 1 2 3 4 5 6 7 8 9 10 11 12 13 14 15 16
000
FTUS41 KLWX 271010 AAB
TAFCHO
TAF AMD
KCHO 271010Z 2710/2806 00000KT 1SM BR OVC002
     FM271300 20007KT 2SM BR BKN025
     FM271600 21008KT P6SM BKN110
     FM280100 20004KT P6SM BKN050=

USA.gov is the U.S. government's official web portal to all federal, state and local government web resources and services.